sensor_id;sensor_type;location;lat;lon;timestamp;pressure;altitude;pressure_sealevel;temperature;humidity
20909;BME280;10614;53.198;6.570;2022-08-02T00:00:01;101952.00;;;16.27;80.75
20909;BME280;10614;53.198;6.570;2022-08-02T00:02:02;101953.00;;;16.24;80.14
20909;BME280;10614;53.198;6.570;2022-08-02T00:04:04;101956.69;;;16.21;81.42
20909;BME280;10614;53.198;6.570;2022-08-02T00:06:06;101958.63;;;16.18;81.64
20909;BME280;10614;53.198;6.570;2022-08-02T00:08:09;101950.88;;;16.13;81.85
20909;BME280;10614;53.198;6.570;2022-08-02T00:10:10;101950.13;;;16.10;82.19
20909;BME280;10614;53.198;6.570;2022-08-02T00:12:12;101956.44;;;16.07;82.30
20909;BME280;10614;53.198;6.570;2022-08-02T00:14:14;101953.94;;;16.04;82.89
20909;BME280;10614;53.198;6.570;2022-08-02T00:16:15;101955.06;;;15.98;82.69
20909;BME280;10614;53.198;6.570;2022-08-02T00:18:17;101956.91;;;15.96;83.94
20909;BME280;10614;53.198;6.570;2022-08-02T00:20:18;101952.59;;;15.94;84.04
20909;BME280;10614;53.198;6.570;2022-08-02T00:22:19;101951.91;;;15.90;84.51
20909;BME280;10614;53.198;6.570;2022-08-02T00:24:22;101955.56;;;15.88;84.13
20909;BME280;10614;53.198;6.570;2022-08-02T00:26:24;101957.47;;;15.84;83.80
20909;BME280;10614;53.198;6.570;2022-08-02T00:28:25;101952.31;;;15.81;84.55
20909;BME280;10614;53.198;6.570;2022-08-02T00:30:27;101964.78;;;15.79;84.43
20909;BME280;10614;53.198;6.570;2022-08-02T00:32:29;101958.72;;;15.75;84.68
20909;BME280;10614;53.198;6.570;2022-08-02T00:34:30;101957.06;;;15.73;84.85
20909;BME280;10614;53.198;6.570;2022-08-02T00:36:31;101960.78;;;15.69;85.56
20909;BME280;10614;53.198;6.570;2022-08-02T00:38:33;101952.03;;;15.67;85.15
20909;BME280;10614;53.198;6.570;2022-08-02T00:40:35;101958.34;;;15.64;85.58
20909;BME280;10614;53.198;6.570;2022-08-02T00:42:36;101954.06;;;15.60;85.98
20909;BME280;10614;53.198;6.570;2022-08-02T00:44:38;101946.16;;;15.58;85.45
20909;BME280;10614;53.198;6.570;2022-08-02T00:46:39;101946.31;;;15.55;86.48
20909;BME280;10614;53.198;6.570;2022-08-02T00:48:41;101942.84;;;15.53;86.28
20909;BME280;10614;53.198;6.570;2022-08-02T00:50:42;101943.84;;;15.51;85.43
20909;BME280;10614;53.198;6.570;2022-08-02T00:52:44;101950.16;;;15.48;85.42
20909;BME280;10614;53.198;6.570;2022-08-02T00:54:45;101947.63;;;15.45;85.95
20909;BME280;10614;53.198;6.570;2022-08-02T00:56:48;101945.97;;;15.43;85.99
20909;BME280;10614;53.198;6.570;2022-08-02T00:58:49;101943.44;;;15.39;86.17
20909;BME280;10614;53.198;6.570;2022-08-02T01:00:51;101946.25;;;15.36;86.66
20909;BME280;10614;53.198;6.570;2022-08-02T01:02:52;101934.88;;;15.33;85.98
20909;BME280;10614;53.198;6.570;2022-08-02T01:04:54;101944.69;;;15.31;85.75
20909;BME280;10614;53.198;6.570;2022-08-02T01:06:56;101941.25;;;15.29;86.04
20909;BME280;10614;53.198;6.570;2022-08-02T01:08:57;101936.88;;;15.28;86.83
20909;BME280;10614;53.198;6.570;2022-08-02T01:10:59;101935.22;;;15.25;86.04
20909;BME280;10614;53.198;6.570;2022-08-02T01:13:02;101932.63;;;15.24;85.97
20909;BME280;10614;53.198;6.570;2022-08-02T01:15:04;101934.56;;;15.20;85.78
20909;BME280;10614;53.198;6.570;2022-08-02T01:17:07;101928.44;;;15.18;86.28
20909;BME280;10614;53.198;6.570;2022-08-02T01:19:20;101921.47;;;15.15;86.85
20909;BME280;10614;53.198;6.570;2022-08-02T01:21:31;101926.84;;;15.14;85.91
20909;BME280;10614;53.198;6.570;2022-08-02T01:23:34;101928.78;;;15.10;86.54
20909;BME280;10614;53.198;6.570;2022-08-02T01:26:01;101925.38;;;15.07;85.81
20909;BME280;10614;53.198;6.570;2022-08-02T01:30:23;101920.25;;;15.02;85.98
20909;BME280;10614;53.198;6.570;2022-08-02T01:32:27;101914.09;;;15.02;86.48
20909;BME280;10614;53.198;6.570;2022-08-02T01:34:31;101913.34;;;14.98;86.57
20909;BME280;10614;53.198;6.570;2022-08-02T01:36:35;101917.78;;;14.97;86.53
20909;BME280;10614;53.198;6.570;2022-08-02T01:38:38;101913.44;;;14.96;86.47
20909;BME280;10614;53.198;6.570;2022-08-02T01:40:41;101910.78;;;14.96;86.50
20909;BME280;10614;53.198;6.570;2022-08-02T01:42:45;101913.34;;;14.98;85.91
20909;BME280;10614;53.198;6.570;2022-08-02T01:44:47;101904.53;;;14.97;86.21
20909;BME280;10614;53.198;6.570;2022-08-02T01:46:51;101906.38;;;14.95;86.13
20909;BME280;10614;53.198;6.570;2022-08-02T01:48:53;101898.56;;;14.92;86.20
20909;BME280;10614;53.198;6.570;2022-08-02T01:50:56;101895.13;;;14.90;86.02
20909;BME280;10614;53.198;6.570;2022-08-02T01:52:59;101896.06;;;14.89;86.13
20909;BME280;10614;53.198;6.570;2022-08-02T01:55:03;101907.66;;;14.87;86.23
20909;BME280;10614;53.198;6.570;2022-08-02T01:57:05;101897.97;;;14.86;86.26
20909;BME280;10614;53.198;6.570;2022-08-02T01:59:07;101894.50;;;14.84;86.04
20909;BME280;10614;53.198;6.570;2022-08-02T02:01:12;101896.34;;;14.82;85.77
20909;BME280;10614;53.198;6.570;2022-08-02T02:03:18;101898.16;;;14.81;85.65
20909;BME280;10614;53.198;6.570;2022-08-02T02:05:20;101896.44;;;14.80;86.26
20909;BME280;10614;53.198;6.570;2022-08-02T02:07:22;101899.94;;;14.81;86.17
20909;BME280;10614;53.198;6.570;2022-08-02T02:09:25;101901.78;;;14.78;86.11
20909;BME280;10614;53.198;6.570;2022-08-02T02:11:26;101903.59;;;14.78;85.97
20909;BME280;10614;53.198;6.570;2022-08-02T02:13:28;101898.34;;;14.76;85.71
20909;BME280;10614;53.198;6.570;2022-08-02T02:15:30;101901.84;;;14.77;85.73
20909;BME280;10614;53.198;6.570;2022-08-02T02:17:32;101893.03;;;14.76;86.24
20909;BME280;10614;53.198;6.570;2022-08-02T02:19:35;101893.03;;;14.76;86.48
20909;BME280;10614;53.198;6.570;2022-08-02T02:21:37;101879.91;;;14.73;86.65
20909;BME280;10614;53.198;6.570;2022-08-02T02:23:39;101874.66;;;14.72;85.93
20909;BME280;10614;53.198;6.570;2022-08-02T02:25:42;101872.16;;;14.69;86.90
20909;BME280;10614;53.198;6.570;2022-08-02T02:27:45;101870.34;;;14.69;87.01
20909;BME280;10614;53.198;6.570;2022-08-02T02:29:48;101864.19;;;14.69;87.01
20909;BME280;10614;53.198;6.570;2022-08-02T02:31:51;101854.41;;;14.71;86.46
20909;BME280;10614;53.198;6.570;2022-08-02T02:33:55;101848.31;;;14.69;86.44
20909;BME280;10614;53.198;6.570;2022-08-02T02:36:00;101844.78;;;14.68;87.38
20909;BME280;10614;53.198;6.570;2022-08-02T02:38:07;101843.06;;;14.67;86.66
20909;BME280;10614;53.198;6.570;2022-08-02T02:40:09;101841.34;;;14.66;87.57
20909;BME280;10614;53.198;6.570;2022-08-02T02:42:12;101843.19;;;14.64;87.38
20909;BME280;10614;53.198;6.570;2022-08-02T02:44:15;101851.13;;;14.64;87.58
20909;BME280;10614;53.198;6.570;2022-08-02T02:46:19;101852.84;;;14.65;87.21
20909;BME280;10614;53.198;6.570;2022-08-02T02:48:20;101852.00;;;14.65;87.79
20909;BME280;10614;53.198;6.570;2022-08-02T02:50:22;101845.84;;;14.64;87.52
20909;BME280;10614;53.198;6.570;2022-08-02T02:52:26;101847.63;;;14.64;88.05
20909;BME280;10614;53.198;6.570;2022-08-02T02:54:27;101846.03;;;14.60;87.29
20909;BME280;10614;53.198;6.570;2022-08-02T02:56:30;101841.72;;;14.57;88.32
20909;BME280;10614;53.198;6.570;2022-08-02T02:58:31;101834.69;;;14.56;87.95
20909;BME280;10614;53.198;6.570;2022-08-02T03:00:33;101833.81;;;14.55;88.13
20909;BME280;10614;53.198;6.570;2022-08-02T03:02:52;101836.56;;;14.54;87.86
20909;BME280;10614;53.198;6.570;2022-08-02T03:04:54;101834.84;;;14.51;88.09
20909;BME280;10614;53.198;6.570;2022-08-02T03:06:56;101837.63;;;14.48;88.84
20909;BME280;10614;53.198;6.570;2022-08-02T03:08:59;101840.41;;;14.45;88.48
20909;BME280;10614;53.198;6.570;2022-08-02T03:11:01;101836.09;;;14.43;88.54
20909;BME280;10614;53.198;6.570;2022-08-02T03:13:02;101832.63;;;14.41;89.04
20909;BME280;10614;53.198;6.570;2022-08-02T03:15:05;101833.66;;;14.36;88.78
20909;BME280;10614;53.198;6.570;2022-08-02T03:17:07;101830.31;;;14.33;89.75
20909;BME280;10614;53.198;6.570;2022-08-02T03:19:08;101838.28;;;14.31;89.51
20909;BME280;10614;53.198;6.570;2022-08-02T03:21:11;101838.44;;;14.28;89.73
20909;BME280;10614;53.198;6.570;2022-08-02T03:23:12;101829.72;;;14.25;90.00
20909;BME280;10614;53.198;6.570;2022-08-02T03:25:16;101837.63;;;14.26;90.10
20909;BME280;10614;53.198;6.570;2022-08-02T03:27:18;101831.47;;;14.26;90.08
20909;BME280;10614;53.198;6.570;2022-08-02T03:29:19;101822.72;;;14.24;90.55
20909;BME280;10614;53.198;6.570;2022-08-02T03:31:21;101825.47;;;14.21;90.56
20909;BME280;10614;53.198;6.570;2022-08-02T03:33:22;101820.25;;;14.19;90.57
20909;BME280;10614;53.198;6.570;2022-08-02T03:35:25;101820.31;;;14.18;90.42
20909;BME280;10614;53.198;6.570;2022-08-02T03:37:26;101816.84;;;14.15;90.92
20909;BME280;10614;53.198;6.570;2022-08-02T03:39:28;101801.00;;;14.14;90.63
20909;BME280;10614;53.198;6.570;2022-08-02T03:41:33;101802.88;;;14.12;90.77
20909;BME280;10614;53.198;6.570;2022-08-02T03:43:36;101809.94;;;14.11;91.39
20909;BME280;10614;53.198;6.570;2022-08-02T03:45:39;101812.59;;;14.11;91.41
20909;BME280;10614;53.198;6.570;2022-08-02T03:47:42;101809.16;;;14.09;91.61
20909;BME280;10614;53.198;6.570;2022-08-02T03:49:44;101803.91;;;14.08;91.62
20909;BME280;10614;53.198;6.570;2022-08-02T03:51:46;101803.91;;;14.08;91.66
20909;BME280;10614;53.198;6.570;2022-08-02T03:53:48;101809.34;;;14.05;91.92
20909;BME280;10614;53.198;6.570;2022-08-02T03:55:50;101806.75;;;14.03;91.45
20909;BME280;10614;53.198;6.570;2022-08-02T03:57:53;101803.25;;;14.03;92.17
20909;BME280;10614;53.198;6.570;2022-08-02T03:59:54;101802.19;;;14.07;91.67
20909;BME280;10614;53.198;6.570;2022-08-02T04:01:55;101804.91;;;14.05;91.85
20909;BME280;10614;53.198;6.570;2022-08-02T04:03:57;101800.47;;;14.06;92.27
20909;BME280;10614;53.198;6.570;2022-08-02T04:05:58;101802.31;;;14.04;92.05
20909;BME280;10614;53.198;6.570;2022-08-02T04:08:00;101797.88;;;14.04;92.77
20909;BME280;10614;53.198;6.570;2022-08-02T04:10:01;101788.22;;;14.03;92.49
20909;BME280;10614;53.198;6.570;2022-08-02T04:12:03;101792.66;;;14.03;92.51
20909;BME280;10614;53.198;6.570;2022-08-02T04:14:07;101797.06;;;14.02;92.23
20909;BME280;10614;53.198;6.570;2022-08-02T04:16:11;101788.34;;;14.00;92.31
20909;BME280;10614;53.198;6.570;2022-08-02T04:18:13;101785.63;;;14.02;92.76
20909;BME280;10614;53.198;6.570;2022-08-02T04:20:17;101790.91;;;14.02;92.87
20909;BME280;10614;53.198;6.570;2022-08-02T04:22:20;101795.34;;;14.01;92.75
20909;BME280;10614;53.198;6.570;2022-08-02T04:24:24;101791.84;;;14.01;93.17
20909;BME280;10614;53.198;6.570;2022-08-02T04:26:27;101791.91;;;13.99;93.34
20909;BME280;10614;53.198;6.570;2022-08-02T04:28:29;101789.25;;;13.99;93.25
20909;BME280;10614;53.198;6.570;2022-08-02T04:30:33;101787.47;;;14.00;93.19
20909;BME280;10614;53.198;6.570;2022-08-02T04:32:35;101791.03;;;13.99;93.76
20909;BME280;10614;53.198;6.570;2022-08-02T04:34:37;101801.69;;;13.97;93.91
20909;BME280;10614;53.198;6.570;2022-08-02T04:36:38;101795.47;;;13.98;93.99
20909;BME280;10614;53.198;6.570;2022-08-02T04:38:40;101790.19;;;13.98;93.97
20909;BME280;10614;53.198;6.570;2022-08-02T04:40:49;101791.03;;;13.99;93.85
20909;BME280;10614;53.198;6.570;2022-08-02T04:42:51;101787.53;;;13.98;94.52
20909;BME280;10614;53.198;6.570;2022-08-02T04:44:53;101792.75;;;14.00;94.54
20909;BME280;10614;53.198;6.570;2022-08-02T04:46:56;101782.13;;;14.01;94.81
20909;BME280;10614;53.198;6.570;2022-08-02T04:48:58;101790.06;;;14.01;94.84
20909;BME280;10614;53.198;6.570;2022-08-02T04:50:59;101781.97;;;14.04;94.83
20909;BME280;10614;53.198;6.570;2022-08-02T04:53:01;101777.50;;;14.06;94.52
20909;BME280;10614;53.198;6.570;2022-08-02T04:55:03;101779.28;;;14.06;94.74
20909;BME280;10614;53.198;6.570;2022-08-02T04:57:05;101782.78;;;14.06;95.22
20909;BME280;10614;53.198;6.570;2022-08-02T04:59:27;101781.00;;;14.07;95.10
20909;BME280;10614;53.198;6.570;2022-08-02T05:01:28;101781.81;;;14.09;95.68
20909;BME280;10614;53.198;6.570;2022-08-02T05:03:31;101779.25;;;14.07;95.79
20909;BME280;10614;53.198;6.570;2022-08-02T05:05:33;101775.59;;;14.10;96.49
20909;BME280;10614;53.198;6.570;2022-08-02T05:07:34;101772.88;;;14.11;97.10
20909;BME280;10614;53.198;6.570;2022-08-02T05:09:36;101774.63;;;14.12;97.88
20909;BME280;10614;53.198;6.570;2022-08-02T05:11:37;101786.88;;;14.15;98.57
20909;BME280;10614;53.198;6.570;2022-08-02T05:13:39;101781.44;;;14.18;99.22
20909;BME280;10614;53.198;6.570;2022-08-02T05:15:41;101785.84;;;14.19;99.82
20909;BME280;10614;53.198;6.570;2022-08-02T05:17:42;101788.41;;;14.21;100.00
20909;BME280;10614;53.198;6.570;2022-08-02T05:19:46;101791.84;;;14.23;100.00
20909;BME280;10614;53.198;6.570;2022-08-02T05:21:47;101778.50;;;14.26;100.00
20909;BME280;10614;53.198;6.570;2022-08-02T05:23:49;101778.41;;;14.27;100.00
20909;BME280;10614;53.198;6.570;2022-08-02T05:25:50;101786.22;;;14.30;100.00
20909;BME280;10614;53.198;6.570;2022-08-02T05:27:51;101771.16;;;14.32;100.00
20909;BME280;10614;53.198;6.570;2022-08-02T05:29:53;101771.94;;;14.34;100.00
20909;BME280;10614;53.198;6.570;2022-08-02T05:31:54;101767.47;;;14.36;100.00
20909;BME280;10614;53.198;6.570;2022-08-02T05:33:56;101766.47;;;14.39;100.00
20909;BME280;10614;53.198;6.570;2022-08-02T05:35:59;101766.34;;;14.42;100.00
20909;BME280;10614;53.198;6.570;2022-08-02T05:38:00;101773.38;;;14.43;100.00
20909;BME280;10614;53.198;6.570;2022-08-02T05:40:02;101777.69;;;14.46;100.00
20909;BME280;10614;53.198;6.570;2022-08-02T05:42:04;101763.50;;;14.47;100.00
20909;BME280;10614;53.198;6.570;2022-08-02T05:44:05;101770.47;;;14.49;100.00
20909;BME280;10614;53.198;6.570;2022-08-02T05:46:07;101763.31;;;14.51;100.00
20909;BME280;10614;53.198;6.570;2022-08-02T05:48:08;101772.03;;;14.53;100.00
20909;BME280;10614;53.198;6.570;2022-08-02T05:50:10;101784.41;;;14.54;100.00
20909;BME280;10614;53.198;6.570;2022-08-02T05:52:15;101789.59;;;14.57;100.00
20909;BME280;10614;53.198;6.570;2022-08-02T05:54:18;101789.44;;;14.61;100.00
20909;BME280;10614;53.198;6.570;2022-08-02T05:56:22;101792.91;;;14.63;100.00
20909;BME280;10614;53.198;6.570;2022-08-02T05:58:26;101783.09;;;14.65;100.00
20909;BME280;10614;53.198;6.570;2022-08-02T06:00:31;101783.91;;;14.67;100.00
20909;BME280;10614;53.198;6.570;2022-08-02T06:02:55;101788.25;;;14.68;100.00
20909;BME280;10614;53.198;6.570;2022-08-02T06:05:02;101781.91;;;14.72;100.00
20909;BME280;10614;53.198;6.570;2022-08-02T06:07:04;101789.75;;;14.75;100.00
20909;BME280;10614;53.198;6.570;2022-08-02T06:09:09;101776.38;;;14.78;100.00
20909;BME280;10614;53.198;6.570;2022-08-02T06:11:11;101774.44;;;14.82;100.00
20909;BME280;10614;53.198;6.570;2022-08-02T06:13:13;101771.66;;;14.85;100.00
20909;BME280;10614;53.198;6.570;2022-08-02T06:15:17;101774.16;;;14.88;100.00
20909;BME280;10614;53.198;6.570;2022-08-02T06:17:19;101774.03;;;14.91;100.00
20909;BME280;10614;53.198;6.570;2022-08-02T06:19:21;101773.91;;;14.94;100.00
20909;BME280;10614;53.198;6.570;2022-08-02T06:21:23;101767.53;;;14.98;100.00
20909;BME280;10614;53.198;6.570;2022-08-02T06:23:25;101770.06;;;15.01;100.00
20909;BME280;10614;53.198;6.570;2022-08-02T06:25:30;101777.81;;;15.06;100.00
20909;BME280;10614;53.198;6.570;2022-08-02T06:27:32;101774.97;;;15.10;100.00
20909;BME280;10614;53.198;6.570;2022-08-02T06:29:34;101771.22;;;15.14;100.00
20909;BME280;10614;53.198;6.570;2022-08-02T06:31:36;101771.91;;;15.19;100.00
20909;BME280;10614;53.198;6.570;2022-08-02T06:33:38;101769.13;;;15.23;100.00
20909;BME280;10614;53.198;6.570;2022-08-02T06:35:41;101765.41;;;15.27;100.00
20909;BME280;10614;53.198;6.570;2022-08-02T06:37:47;101757.28;;;15.30;100.00
20909;BME280;10614;53.198;6.570;2022-08-02T06:39:51;101755.34;;;15.33;100.00
20909;BME280;10614;53.198;6.570;2022-08-02T06:41:58;101756.09;;;15.37;100.00
20909;BME280;10614;53.198;6.570;2022-08-02T06:44:02;101757.69;;;15.41;100.00
20909;BME280;10614;53.198;6.570;2022-08-02T06:46:04;101752.22;;;15.44;100.00
20909;BME280;10614;53.198;6.570;2022-08-02T06:48:05;101756.38;;;15.50;100.00
20909;BME280;10614;53.198;6.570;2022-08-02T06:50:07;101757.97;;;15.54;100.00
20909;BME280;10614;53.198;6.570;2022-08-02T06:52:09;101757.84;;;15.57;100.00
20909;BME280;10614;53.198;6.570;2022-08-02T06:54:11;101756.75;;;15.61;100.00
20909;BME280;10614;53.198;6.570;2022-08-02T06:56:13;101753.88;;;15.66;100.00
20909;BME280;10614;53.198;6.570;2022-08-02T06:58:15;101745.66;;;15.72;100.00
20909;BME280;10614;53.198;6.570;2022-08-02T07:00:17;101748.09;;;15.76;100.00
20909;BME280;10614;53.198;6.570;2022-08-02T07:02:18;101747.88;;;15.81;100.00
20909;BME280;10614;53.198;6.570;2022-08-02T07:04:20;101745.88;;;15.86;100.00
20909;BME280;10614;53.198;6.570;2022-08-02T07:06:21;101744.69;;;15.92;100.00
20909;BME280;10614;53.198;6.570;2022-08-02T07:08:23;101748.03;;;15.97;100.00
20909;BME280;10614;53.198;6.570;2022-08-02T07:10:25;101739.84;;;16.01;100.00
20909;BME280;10614;53.198;6.570;2022-08-02T07:12:27;101733.41;;;16.06;100.00
20909;BME280;10614;53.198;6.570;2022-08-02T07:14:30;101729.69;;;16.10;100.00
20909;BME280;10614;53.198;6.570;2022-08-02T07:16:32;101731.25;;;16.14;100.00
20909;BME280;10614;53.198;6.570;2022-08-02T07:18:33;101739.06;;;16.17;100.00
20909;BME280;10614;53.198;6.570;2022-08-02T07:20:35;101732.75;;;16.19;100.00
20909;BME280;10614;53.198;6.570;2022-08-02T07:22:37;101731.81;;;16.20;100.00
20909;BME280;10614;53.198;6.570;2022-08-02T07:24:38;101739.56;;;16.25;100.00
20909;BME280;10614;53.198;6.570;2022-08-02T07:26:40;101735.78;;;16.29;100.00
20909;BME280;10614;53.198;6.570;2022-08-02T07:28:42;101730.41;;;16.31;99.23
20909;BME280;10614;53.198;6.570;2022-08-02T07:30:45;101727.59;;;16.34;98.93
20909;BME280;10614;53.198;6.570;2022-08-02T07:32:47;101724.81;;;16.37;98.34
20909;BME280;10614;53.198;6.570;2022-08-02T07:34:48;101718.25;;;16.44;97.87
20909;BME280;10614;53.198;6.570;2022-08-02T07:36:50;101708.31;;;16.48;96.79
20909;BME280;10614;53.198;6.570;2022-08-02T07:38:52;101703.72;;;16.51;95.21
20909;BME280;10614;53.198;6.570;2022-08-02T07:40:53;101700.81;;;16.56;94.29
20909;BME280;10614;53.198;6.570;2022-08-02T07:42:55;101695.25;;;16.60;93.99
20909;BME280;10614;53.198;6.570;2022-08-02T07:44:57;101693.22;;;16.65;92.99
20909;BME280;10614;53.198;6.570;2022-08-02T07:47:00;101697.34;;;16.71;92.72
20909;BME280;10614;53.198;6.570;2022-08-02T07:49:01;101693.53;;;16.77;93.44
20909;BME280;10614;53.198;6.570;2022-08-02T07:51:03;101689.69;;;16.82;93.04
20909;BME280;10614;53.198;6.570;2022-08-02T07:53:05;101685.94;;;16.86;92.79
20909;BME280;10614;53.198;6.570;2022-08-02T07:55:06;101684.06;;;16.88;92.56
20909;BME280;10614;53.198;6.570;2022-08-02T07:57:08;101688.19;;;16.94;91.34
20909;BME280;10614;53.198;6.570;2022-08-02T07:59:09;101688.91;;;16.98;90.08
20909;BME280;10614;53.198;6.570;2022-08-02T08:01:11;101684.97;;;17.05;89.13
20909;BME280;10614;53.198;6.570;2022-08-02T08:03:13;101686.59;;;17.07;87.95
20909;BME280;10614;53.198;6.570;2022-08-02T08:05:15;101690.72;;;17.13;88.39
20909;BME280;10614;53.198;6.570;2022-08-02T08:07:17;101683.34;;;17.18;87.09
20909;BME280;10614;53.198;6.570;2022-08-02T08:09:18;101687.56;;;17.22;87.43
20909;BME280;10614;53.198;6.570;2022-08-02T08:11:20;101688.16;;;17.27;86.80
20909;BME280;10614;53.198;6.570;2022-08-02T08:13:22;101693.25;;;17.32;86.51
20909;BME280;10614;53.198;6.570;2022-08-02T08:15:23;101682.34;;;17.37;86.22
20909;BME280;10614;53.198;6.570;2022-08-02T08:17:24;101678.38;;;17.44;85.61
20909;BME280;10614;53.198;6.570;2022-08-02T08:19:27;101673.59;;;17.50;85.27
20909;BME280;10614;53.198;6.570;2022-08-02T08:21:29;101678.59;;;17.57;84.35
20909;BME280;10614;53.198;6.570;2022-08-02T08:23:31;101675.66;;;17.61;83.30
20909;BME280;10614;53.198;6.570;2022-08-02T08:25:32;101664.84;;;17.64;83.07
20909;BME280;10614;53.198;6.570;2022-08-02T08:27:34;101661.91;;;17.69;82.11
20909;BME280;10614;53.198;6.570;2022-08-02T08:29:35;101658.97;;;17.73;82.04
20909;BME280;10614;53.198;6.570;2022-08-02T08:31:37;101665.75;;;17.79;80.99
20909;BME280;10614;53.198;6.570;2022-08-02T08:33:38;101661.09;;;17.84;80.26
20909;BME280;10614;53.198;6.570;2022-08-02T08:35:42;101659.94;;;17.88;78.88
20909;BME280;10614;53.198;6.570;2022-08-02T08:37:43;101664.13;;;17.92;78.39
20909;BME280;10614;53.198;6.570;2022-08-02T08:39:45;101661.22;;;17.97;78.19
20909;BME280;10614;53.198;6.570;2022-08-02T08:41:46;101667.25;;;18.01;77.40
20909;BME280;10614;53.198;6.570;2022-08-02T08:43:48;101665.22;;;18.04;77.47
20909;BME280;10614;53.198;6.570;2022-08-02T08:45:49;101667.72;;;18.07;77.12
20909;BME280;10614;53.198;6.570;2022-08-02T08:47:51;101670.28;;;18.09;76.21
20909;BME280;10614;53.198;6.570;2022-08-02T08:49:56;101667.44;;;18.12;76.00
20909;BME280;10614;53.198;6.570;2022-08-02T08:52:06;101668.06;;;18.17;75.58
20909;BME280;10614;53.198;6.570;2022-08-02T08:54:09;101665.28;;;18.19;75.17
20909;BME280;10614;53.198;6.570;2022-08-02T08:56:12;101657.88;;;18.24;74.08
20909;BME280;10614;53.198;6.570;2022-08-02T08:58:15;101663.81;;;18.29;73.68
20909;BME280;10614;53.198;6.570;2022-08-02T09:00:17;101660.09;;;18.31;73.70
20909;BME280;10614;53.198;6.570;2022-08-02T09:02:19;101656.31;;;18.35;73.00
20909;BME280;10614;53.198;6.570;2022-08-02T09:04:20;101656.00;;;18.40;72.60
20909;BME280;10614;53.198;6.570;2022-08-02T09:06:22;101655.00;;;18.43;73.05
20909;BME280;10614;53.198;6.570;2022-08-02T09:08:25;101652.97;;;18.46;72.50
20909;BME280;10614;53.198;6.570;2022-08-02T09:10:31;101647.38;;;18.51;72.14
20909;BME280;10614;53.198;6.570;2022-08-02T09:12:32;101652.34;;;18.57;71.91
20909;BME280;10614;53.198;6.570;2022-08-02T09:14:34;101649.41;;;18.62;72.05
20909;BME280;10614;53.198;6.570;2022-08-02T09:16:36;101648.22;;;18.66;71.91
20909;BME280;10614;53.198;6.570;2022-08-02T09:18:38;101640.84;;;18.71;71.73
20909;BME280;10614;53.198;6.570;2022-08-02T09:20:50;101642.28;;;18.76;72.08
20909;BME280;10614;53.198;6.570;2022-08-02T09:23:03;101644.47;;;18.84;71.94
20909;BME280;10614;53.198;6.570;2022-08-02T09:25:07;101642.28;;;18.91;71.57
20909;BME280;10614;53.198;6.570;2022-08-02T09:27:16;101638.19;;;19.00;70.84
20909;BME280;10614;53.198;6.570;2022-08-02T09:29:18;101635.88;;;19.08;70.99
20909;BME280;10614;53.198;6.570;2022-08-02T09:31:22;101635.41;;;19.15;71.56
20909;BME280;10614;53.198;6.570;2022-08-02T09:33:24;101623.47;;;19.21;71.95
20909;BME280;10614;53.198;6.570;2022-08-02T09:35:33;101633.78;;;19.27;72.43
20909;BME280;10614;53.198;6.570;2022-08-02T09:37:35;101634.25;;;19.34;72.60
20909;BME280;10614;53.198;6.570;2022-08-02T09:39:42;101629.16;;;19.44;71.46
20909;BME280;10614;53.198;6.570;2022-08-02T09:41:45;101631.13;;;19.54;70.87
20909;BME280;10614;53.198;6.570;2022-08-02T09:43:47;101624.41;;;19.61;70.68
20909;BME280;10614;53.198;6.570;2022-08-02T09:45:48;101616.00;;;19.68;70.13
20909;BME280;10614;53.198;6.570;2022-08-02T09:47:50;101619.16;;;19.74;70.67
20909;BME280;10614;53.198;6.570;2022-08-02T09:49:52;101618.75;;;19.80;70.60
20909;BME280;10614;53.198;6.570;2022-08-02T09:51:54;101615.66;;;19.87;70.01
20909;BME280;10614;53.198;6.570;2022-08-02T09:53:56;101617.28;;;19.89;69.89
20909;BME280;10614;53.198;6.570;2022-08-02T09:55:58;101614.31;;;19.94;70.38
20909;BME280;10614;53.198;6.570;2022-08-02T10:00:19;101621.69;;;20.03;71.49
20909;BME280;10614;53.198;6.570;2022-08-02T10:02:20;101621.38;;;20.08;71.94
20909;BME280;10614;53.198;6.570;2022-08-02T10:04:22;101623.84;;;20.11;72.19
20909;BME280;10614;53.198;6.570;2022-08-02T10:06:24;101621.06;;;20.12;72.30
20909;BME280;10614;53.198;6.570;2022-08-02T10:08:26;101626.19;;;20.15;72.83
20909;BME280;10614;53.198;6.570;2022-08-02T10:10:28;101617.03;;;20.19;72.45
20909;BME280;10614;53.198;6.570;2022-08-02T10:12:29;101608.59;;;20.26;72.37
20909;BME280;10614;53.198;6.570;2022-08-02T10:14:31;101621.53;;;20.32;72.70
20909;BME280;10614;53.198;6.570;2022-08-02T10:16:35;101608.59;;;20.38;72.47
20909;BME280;10614;53.198;6.570;2022-08-02T10:18:36;101613.63;;;20.43;72.09
20909;BME280;10614;53.198;6.570;2022-08-02T10:20:39;101611.38;;;20.50;72.64
20909;BME280;10614;53.198;6.570;2022-08-02T10:22:42;101608.94;;;20.59;72.84
20909;BME280;10614;53.198;6.570;2022-08-02T10:24:44;101607.31;;;20.70;73.40
20909;BME280;10614;53.198;6.570;2022-08-02T10:26:46;101595.97;;;20.79;72.89
20909;BME280;10614;53.198;6.570;2022-08-02T10:28:48;101605.06;;;20.89;73.39
20909;BME280;10614;53.198;6.570;2022-08-02T10:30:50;101597.47;;;20.96;73.22
20909;BME280;10614;53.198;6.570;2022-08-02T10:32:54;101596.91;;;21.03;73.94
20909;BME280;10614;53.198;6.570;2022-08-02T10:34:59;101597.31;;;21.10;74.02
20909;BME280;10614;53.198;6.570;2022-08-02T10:37:01;101591.50;;;21.16;73.43
20909;BME280;10614;53.198;6.570;2022-08-02T10:39:03;101589.22;;;21.23;74.26
20909;BME280;10614;53.198;6.570;2022-08-02T10:41:04;101589.75;;;21.28;74.32
20909;BME280;10614;53.198;6.570;2022-08-02T10:43:07;101588.56;;;21.32;74.57